Osage Beach, MO (65065)

8:04 AM CST on December 15, 2019 (GMT -0600)
KRMS/93.5 ROCK Radio Station | | Change Station
Active Advisory: Winter Storm Warning

Elev 961 ft 38.15 °N, 92.62 °W | Updated 4 minutes ago

Overcast
Overcast
29.7 °F
Feels Like 30 °F
N
2
Wind Variable Wind from East
Gusts 5.0 mph

Today
High -- | Low -- °F
--% Chance of Precip.
Yesterday
High -- | Low -- °F
Precip. -- in
Pressure 30.07 in
Visibility 9.0 miles
Clouds Overcast 1200 ft
Windchill 30 °F
Dew Point 25 °F
Humidity 82%
Rainfall 0.00 in
Snow Depth Not available.
7:19 AM 4:51 PM
Waning Gibbous, 87% visible
METAR KAIZ 151356Z AUTO 04007KT 9SM OVC012 M02/M04 A3005 RMK AO2 SNB27E42 SLP182 P0000 T10221044 FZRANO
Pressure 30.07 in
Visibility 9.0 miles
Clouds Overcast 1200 ft
Windchill 30 °F
Dew Point 25 °F
Humidity 82%
Rainfall 0.00 in
Snow Depth Not available.
7:19 AM 4:51 PM
Waning Gibbous, 87% visible
METAR KAIZ 151356Z AUTO 04007KT 9SM OVC012 M02/M04 A3005 RMK AO2 SNB27E42 SLP182 P0000 T10221044 FZRANO

Get Your Daily Forecast Email!

Thanks for signing up!

Be on the lookout for a verification email in your inbox.

You'll start receiving severe weather alerts in your inbox..

×

10-Day Weather Forecast

Almanac

Astronomy

Dec. 15, 2019 Rise Set
Actual Time
Civil Twilight
Nautical Twilight
Astronomical Twilight
Moon
Length of Visible Light
Length of Day
Tomorrow will be .
, % of the Moon is Illuminated

Today's Extremes

State Highs State Lows

Community

WunderPhotos

Category 6

Welcome to Category 6. This is the collective home for Weather Underground's featured writeups by Dr. Jeff Masters (right), Bob Henson (left), Chris Burt, and other regular contributors.

Nearby

Air Quality

  Air Quality AQ Index Pollutant
Not available.

Snow Depth

Station Depth Elevation

Earthquake Activity

City Distance Mag. Time & Date
Minimum magnitude displayed is 2.5.

Coastal Water Temperatures

Place Temperature

Stations

Nearby Weather Stations

Station Location Temp. Windchill Dew Point Humidity Wind Precip. Elev Updated Type
                   

Watches & Warnings

Winter Storm Warning
Issued: 3:51 AM CST Dec. 15, 2019 – National Weather Service

... Winter Storm Warning in effect until 6 PM CST Monday...

* what... heavy mixed precipitation expected. Total snow
accumulations of 3 to 6 inches and ice accumulations of around
one tenth of an inch.

* Where... portions of southeast Kansas and central and west
central Missouri.

* When... until 6 PM CST Monday.

* Impacts... plan on slippery Road conditions. The hazardous
conditions will likely impact travel during the morning and
evening commutes.

Precautionary/preparedness actions...

If you must travel, keep an extra flashlight, food, and water in
your vehicle in case of an emergency.

In Kansas, Road conditions can be obtained by calling 5 1 1.